A STRONG WIND WARNING IS CURRENT FOR WESTERN AND RENNELL/BELLONA PROVINCES AND THE SOUTHERN WATERS OF MAKIRA, GUADALCANAL AND RUSSELL ISLANDS. Henderson – Solomon Islands Meteorological Services

Meteorological Division | Solomon Islands Government

Henderson

Updated 11:00AM on the 14/04/2023

METAR AGGH 140000Z 36002KT 9999 FEW019 FEW020CB BKN300 31/25 Q1007 RMK CB ASSW SH TO W=

Sign In to MET Services – Henderson 

Our website use cookies to improve and personalize your experience and to display advertisements(if any). Our website may also include cookies from third parties like Google Adsense, Google Analytics, Youtube. By using the website, you consent to the use of cookies. We have updated our Privacy Policy. Please click on the button to check our Privacy Policy.